sensor_id;sensor_type;location;lat;lon;timestamp;pressure;altitude;pressure_sealevel;temperature;humidity
6224;BME280;3145;42.726;23.342;2023-07-29T00:00:56;71513.50;;;-142.70;52.15
6224;BME280;3145;42.726;23.342;2023-07-29T00:03:22;71509.47;;;-142.70;51.95
6224;BME280;3145;42.726;23.342;2023-07-29T00:05:49;71517.53;;;-142.70;52.06
6224;BME280;3145;42.726;23.342;2023-07-29T00:08:16;71517.53;;;-142.70;52.33
6224;BME280;3145;42.726;23.342;2023-07-29T00:10:43;71523.56;;;-142.70;52.17
6224;BME280;3145;42.726;23.342;2023-07-29T00:13:11;71517.53;;;-142.70;52.06
6224;BME280;3145;42.726;23.342;2023-07-29T00:15:38;71517.53;;;-142.70;52.13
6224;BME280;3145;42.726;23.342;2023-07-29T00:18:04;71517.53;;;-142.70;52.28
6224;BME280;3145;42.726;23.342;2023-07-29T00:20:31;71523.56;;;-142.70;52.22
6224;BME280;3145;42.726;23.342;2023-07-29T00:22:58;71529.63;;;-142.70;52.42
6224;BME280;3145;42.726;23.342;2023-07-29T00:25:25;71541.69;;;-142.70;52.70
6224;BME280;3145;42.726;23.342;2023-07-29T00:27:54;71543.72;;;-142.70;52.96
6224;BME280;3145;42.726;23.342;2023-07-29T00:30:22;71553.78;;;-142.70;52.99
6224;BME280;3145;42.726;23.342;2023-07-29T00:32:49;71553.78;;;-142.70;53.06
6224;BME280;3145;42.726;23.342;2023-07-29T00:35:15;71555.81;;;-142.70;53.43
6224;BME280;3145;42.726;23.342;2023-07-29T00:37:42;71561.84;;;-142.70;53.43
6224;BME280;3145;42.726;23.342;2023-07-29T00:40:14;71553.78;;;-142.70;53.56
6224;BME280;3145;42.726;23.342;2023-07-29T00:42:41;71559.81;;;-142.70;53.54
6224;BME280;3145;42.726;23.342;2023-07-29T00:45:09;71557.81;;;-142.70;53.99
6224;BME280;3145;42.726;23.342;2023-07-29T00:47:37;71551.78;;;-142.70;53.96
6224;BME280;3145;42.726;23.342;2023-07-29T00:50:05;71549.75;;;-142.70;54.10
6224;BME280;3145;42.726;23.342;2023-07-29T00:52:32;71559.81;;;-142.70;54.23
6224;BME280;3145;42.726;23.342;2023-07-29T00:54:59;71561.84;;;-142.70;54.42
6224;BME280;3145;42.726;23.342;2023-07-29T00:57:26;71561.84;;;-142.70;54.11
6224;BME280;3145;42.726;23.342;2023-07-29T00:59:54;71567.88;;;-142.70;54.32
6224;BME280;3145;42.726;23.342;2023-07-29T01:02:21;71563.84;;;-142.70;54.58
6224;BME280;3145;42.726;23.342;2023-07-29T01:04:53;71561.84;;;-142.70;54.60
6224;BME280;3145;42.726;23.342;2023-07-29T01:07:25;71563.84;;;-142.70;54.53
6224;BME280;3145;42.726;23.342;2023-07-29T01:10:01;71569.91;;;-142.70;54.76
6224;BME280;3145;42.726;23.342;2023-07-29T01:12:36;71573.94;;;-142.70;54.87
6224;BME280;3145;42.726;23.342;2023-07-29T01:15:11;71569.91;;;-142.70;54.91
6224;BME280;3145;42.726;23.342;2023-07-29T01:17:46;71581.97;;;-142.70;55.19
6224;BME280;3145;42.726;23.342;2023-07-29T01:20:15;71586.00;;;-142.70;55.08
6224;BME280;3145;42.726;23.342;2023-07-29T01:22:45;71590.03;;;-142.70;55.20
6224;BME280;3145;42.726;23.342;2023-07-29T01:25:14;71590.03;;;-142.70;55.24
6224;BME280;3145;42.726;23.342;2023-07-29T01:27:42;71594.06;;;-142.70;55.32
6224;BME280;3145;42.726;23.342;2023-07-29T01:30:10;71594.06;;;-142.70;55.44
6224;BME280;3145;42.726;23.342;2023-07-29T01:32:40;71592.06;;;-142.70;55.40
6224;BME280;3145;42.726;23.342;2023-07-29T01:35:15;71588.03;;;-142.70;55.54
6224;BME280;3145;42.726;23.342;2023-07-29T01:37:49;71594.06;;;-142.70;55.35
6224;BME280;3145;42.726;23.342;2023-07-29T01:40:21;71606.16;;;-142.70;55.95
6224;BME280;3145;42.726;23.342;2023-07-29T01:42:49;71606.16;;;-142.70;56.05
6224;BME280;3145;42.726;23.342;2023-07-29T01:45:15;71614.19;;;-142.70;56.20
6224;BME280;3145;42.726;23.342;2023-07-29T01:47:42;71618.22;;;-142.70;56.40
6224;BME280;3145;42.726;23.342;2023-07-29T01:50:09;71618.22;;;-142.70;56.61
6224;BME280;3145;42.726;23.342;2023-07-29T01:52:36;71622.25;;;-142.70;56.84
6224;BME280;3145;42.726;23.342;2023-07-29T01:55:03;71622.25;;;-142.70;56.59
6224;BME280;3145;42.726;23.342;2023-07-29T01:57:31;71624.28;;;-142.70;56.66
6224;BME280;3145;42.726;23.342;2023-07-29T01:59:58;71630.31;;;-142.70;56.88
6224;BME280;3145;42.726;23.342;2023-07-29T02:02:25;71634.34;;;-142.70;57.15
6224;BME280;3145;42.726;23.342;2023-07-29T02:04:52;71638.38;;;-142.70;57.13
6224;BME280;3145;42.726;23.342;2023-07-29T02:07:21;71634.34;;;-142.70;57.33
6224;BME280;3145;42.726;23.342;2023-07-29T02:09:47;71642.41;;;-142.70;57.11
6224;BME280;3145;42.726;23.342;2023-07-29T02:12:14;71646.44;;;-142.70;57.38
6224;BME280;3145;42.726;23.342;2023-07-29T02:14:42;71650.44;;;-142.70;57.44
6224;BME280;3145;42.726;23.342;2023-07-29T02:17:09;71650.44;;;-142.70;57.66
6224;BME280;3145;42.726;23.342;2023-07-29T02:19:35;71654.47;;;-142.70;57.69
6224;BME280;3145;42.726;23.342;2023-07-29T02:22:02;71662.53;;;-142.70;57.69
6224;BME280;3145;42.726;23.342;2023-07-29T02:24:29;71666.56;;;-142.70;57.90
6224;BME280;3145;42.726;23.342;2023-07-29T02:26:56;71668.59;;;-142.70;58.04
6224;BME280;3145;42.726;23.342;2023-07-29T02:29:22;71674.63;;;-142.70;58.58
6224;BME280;3145;42.726;23.342;2023-07-29T02:31:51;71678.66;;;-142.70;58.49
6224;BME280;3145;42.726;23.342;2023-07-29T02:34:19;71680.66;;;-142.70;58.43
6224;BME280;3145;42.726;23.342;2023-07-29T02:36:45;71686.72;;;-142.70;58.57
6224;BME280;3145;42.726;23.342;2023-07-29T02:39:12;71688.72;;;-142.70;58.25
6224;BME280;3145;42.726;23.342;2023-07-29T02:41:39;71690.72;;;-142.70;58.24
6224;BME280;3145;42.726;23.342;2023-07-29T02:44:05;71694.75;;;-142.70;58.34
6224;BME280;3145;42.726;23.342;2023-07-29T02:46:32;71696.78;;;-142.70;58.52
6224;BME280;3145;42.726;23.342;2023-07-29T02:49:01;71690.72;;;-142.70;58.27
6224;BME280;3145;42.726;23.342;2023-07-29T02:51:28;71690.72;;;-142.70;58.32
6224;BME280;3145;42.726;23.342;2023-07-29T02:53:55;71698.78;;;-142.70;58.37
6224;BME280;3145;42.726;23.342;2023-07-29T02:56:22;71702.81;;;-142.70;58.37
6224;BME280;3145;42.726;23.342;2023-07-29T02:58:49;71694.75;;;-142.70;58.44
6224;BME280;3145;42.726;23.342;2023-07-29T03:01:16;71702.81;;;-142.70;58.27
6224;BME280;3145;42.726;23.342;2023-07-29T03:03:43;71710.88;;;-142.70;58.30
6224;BME280;3145;42.726;23.342;2023-07-29T03:06:14;71714.91;;;-142.70;58.56
6224;BME280;3145;42.726;23.342;2023-07-29T03:08:41;71724.97;;;-142.70;58.52
6224;BME280;3145;42.726;23.342;2023-07-29T03:11:09;71731.00;;;-142.70;58.56
6224;BME280;3145;42.726;23.342;2023-07-29T03:13:36;71741.09;;;-142.70;58.81
6224;BME280;3145;42.726;23.342;2023-07-29T03:16:07;71743.09;;;-142.70;58.82
6224;BME280;3145;42.726;23.342;2023-07-29T03:18:34;71737.06;;;-142.70;58.53
6224;BME280;3145;42.726;23.342;2023-07-29T03:21:01;71739.06;;;-142.70;58.69
6224;BME280;3145;42.726;23.342;2023-07-29T03:23:30;71743.09;;;-142.70;59.15
6224;BME280;3145;42.726;23.342;2023-07-29T03:25:57;71741.09;;;-142.70;58.87
6224;BME280;3145;42.726;23.342;2023-07-29T03:28:25;71743.09;;;-142.70;59.22
6224;BME280;3145;42.726;23.342;2023-07-29T03:30:53;71747.13;;;-142.70;59.19
6224;BME280;3145;42.726;23.342;2023-07-29T03:33:20;71743.09;;;-142.70;58.99
6224;BME280;3145;42.726;23.342;2023-07-29T03:35:47;71743.09;;;-142.70;59.15
6224;BME280;3145;42.726;23.342;2023-07-29T03:38:14;71735.03;;;-142.70;58.79
6224;BME280;3145;42.726;23.342;2023-07-29T03:40:42;71727.00;;;-142.70;59.02
6224;BME280;3145;42.726;23.342;2023-07-29T03:43:09;71706.84;;;-142.70;58.40
6224;BME280;3145;42.726;23.342;2023-07-29T03:45:37;71710.88;;;-142.70;57.52
6224;BME280;3145;42.726;23.342;2023-07-29T03:48:05;71690.72;;;-142.70;57.96
6224;BME280;3145;42.726;23.342;2023-07-29T03:50:33;71656.50;;;-142.70;57.56
6224;BME280;3145;42.726;23.342;2023-07-29T03:53:00;71620.25;;;-142.70;56.67
6224;BME280;3145;42.726;23.342;2023-07-29T03:55:27;71581.97;;;-142.70;55.52
6224;BME280;3145;42.726;23.342;2023-07-29T03:57:56;71541.69;;;-142.70;53.98
6224;BME280;3145;42.726;23.342;2023-07-29T04:00:23;71507.47;;;-142.70;53.15
6224;BME280;3145;42.726;23.342;2023-07-29T04:02:50;71479.28;;;-142.70;52.14
6224;BME280;3145;42.726;23.342;2023-07-29T04:05:17;71439.00;;;-142.70;52.38
6224;BME280;3145;42.726;23.342;2023-07-29T04:07:44;71424.91;;;-142.70;50.84
6224;BME280;3145;42.726;23.342;2023-07-29T04:10:11;71380.59;;;-142.70;49.96
6224;BME280;3145;42.726;23.342;2023-07-29T04:12:38;71352.41;;;-142.70;48.95
6224;BME280;3145;42.726;23.342;2023-07-29T04:15:07;71314.13;;;-142.70;48.51
6224;BME280;3145;42.726;23.342;2023-07-29T04:17:34;71298.03;;;-142.70;47.37
6224;BME280;3145;42.726;23.342;2023-07-29T04:20:01;71291.97;;;-142.70;47.18
6224;BME280;3145;42.726;23.342;2023-07-29T04:22:28;71285.94;;;-142.70;46.67
6224;BME280;3145;42.726;23.342;2023-07-29T04:24:54;71243.66;;;-142.70;45.98
6224;BME280;3145;42.726;23.342;2023-07-29T04:27:21;71201.38;;;-142.70;45.40
6224;BME280;3145;42.726;23.342;2023-07-29T04:29:48;71169.16;;;-142.70;44.37
6224;BME280;3145;42.726;23.342;2023-07-29T04:32:16;71130.88;;;-142.70;43.35
6224;BME280;3145;42.726;23.342;2023-07-29T04:34:43;71100.69;;;-142.70;42.81
6224;BME280;3145;42.726;23.342;2023-07-29T04:37:09;71074.50;;;-142.70;42.36
6224;BME280;3145;42.726;23.342;2023-07-29T04:39:36;71060.41;;;-142.70;41.58
6224;BME280;3145;42.726;23.342;2023-07-29T04:42:03;71038.25;;;-142.70;41.27
6224;BME280;3145;42.726;23.342;2023-07-29T04:44:30;71010.06;;;-142.70;41.19
6224;BME280;3145;42.726;23.342;2023-07-29T04:46:57;70981.88;;;-142.70;40.61
6224;BME280;3145;42.726;23.342;2023-07-29T04:49:25;70937.56;;;-142.70;39.96
6224;BME280;3145;42.726;23.342;2023-07-29T04:51:52;70923.47;;;-142.70;39.16
6224;BME280;3145;42.726;23.342;2023-07-29T04:54:18;70893.28;;;-142.70;39.04
6224;BME280;3145;42.726;23.342;2023-07-29T04:56:46;70861.06;;;-142.70;38.51
6224;BME280;3145;42.726;23.342;2023-07-29T04:59:13;70851.00;;;-142.70;37.95
6224;BME280;3145;42.726;23.342;2023-07-29T05:01:40;70909.38;;;-142.70;38.67
6224;BME280;3145;42.726;23.342;2023-07-29T05:04:08;70925.50;;;-142.70;39.48
6224;BME280;3145;42.726;23.342;2023-07-29T05:06:36;70901.34;;;-142.70;39.57
6224;BME280;3145;42.726;23.342;2023-07-29T05:09:12;70838.91;;;-142.70;38.45
6224;BME280;3145;42.726;23.342;2023-07-29T05:11:39;70796.63;;;-142.70;38.29
6224;BME280;3145;42.726;23.342;2023-07-29T05:14:06;70752.34;;;-142.70;37.12
6224;BME280;3145;42.726;23.342;2023-07-29T05:16:34;70720.13;;;-142.70;36.62
6224;BME280;3145;42.726;23.342;2023-07-29T05:19:01;70691.94;;;-142.70;36.57
6224;BME280;3145;42.726;23.342;2023-07-29T05:21:28;70728.16;;;-142.70;36.42
6224;BME280;3145;42.726;23.342;2023-07-29T05:23:56;70732.19;;;-142.70;36.44
6224;BME280;3145;42.726;23.342;2023-07-29T05:26:23;70776.50;;;-142.70;37.50
6224;BME280;3145;42.726;23.342;2023-07-29T05:28:50;70716.09;;;-142.70;36.85
6224;BME280;3145;42.726;23.342;2023-07-29T05:31:17;70671.78;;;-142.70;36.41
6224;BME280;3145;42.726;23.342;2023-07-29T05:33:44;70649.66;;;-142.70;35.36
6224;BME280;3145;42.726;23.342;2023-07-29T05:36:10;70695.97;;;-142.70;36.57
6224;BME280;3145;42.726;23.342;2023-07-29T05:38:37;70663.75;;;-142.70;36.40
6224;BME280;3145;42.726;23.342;2023-07-29T05:41:05;70621.47;;;-142.70;36.16
6224;BME280;3145;42.726;23.342;2023-07-29T05:43:32;70669.78;;;-142.70;35.76
6224;BME280;3145;42.726;23.342;2023-07-29T05:45:58;70687.91;;;-142.70;36.14
6224;BME280;3145;42.726;23.342;2023-07-29T05:48:25;70639.59;;;-142.70;35.70
6224;BME280;3145;42.726;23.342;2023-07-29T05:50:52;70605.34;;;-142.70;35.31
6224;BME280;3145;42.726;23.342;2023-07-29T05:53:18;70577.16;;;-142.70;35.51
6224;BME280;3145;42.726;23.342;2023-07-29T05:55:45;70551.00;;;-142.70;34.90
6224;BME280;3145;42.726;23.342;2023-07-29T05:58:13;70512.75;;;-142.70;34.78
6224;BME280;3145;42.726;23.342;2023-07-29T06:00:40;70524.81;;;-142.70;34.41
6224;BME280;3145;42.726;23.342;2023-07-29T06:03:06;70538.91;;;-142.70;34.26
6224;BME280;3145;42.726;23.342;2023-07-29T06:05:33;70542.94;;;-142.70;34.85
6224;BME280;3145;42.726;23.342;2023-07-29T06:08:00;70538.91;;;-142.70;34.33
6224;BME280;3145;42.726;23.342;2023-07-29T06:10:27;70599.31;;;-142.70;34.58
6224;BME280;3145;42.726;23.342;2023-07-29T06:12:53;70704.00;;;-142.70;35.95
6224;BME280;3145;42.726;23.342;2023-07-29T06:15:21;70716.09;;;-142.70;36.30
6224;BME280;3145;42.726;23.342;2023-07-29T06:17:48;70651.66;;;-142.70;36.04
6224;BME280;3145;42.726;23.342;2023-07-29T06:20:15;70599.31;;;-142.70;35.92
6224;BME280;3145;42.726;23.342;2023-07-29T06:22:42;70631.53;;;-142.70;35.73
6224;BME280;3145;42.726;23.342;2023-07-29T06:25:08;70567.09;;;-142.70;35.30
6224;BME280;3145;42.726;23.342;2023-07-29T06:27:35;70514.75;;;-142.70;34.30
6224;BME280;3145;42.726;23.342;2023-07-29T06:30:02;70559.03;;;-142.70;34.67
6224;BME280;3145;42.726;23.342;2023-07-29T06:32:30;70643.59;;;-142.70;35.52
6224;BME280;3145;42.726;23.342;2023-07-29T06:34:57;70631.53;;;-142.70;36.21
6224;BME280;3145;42.726;23.342;2023-07-29T06:37:24;70595.28;;;-142.70;36.30
6224;BME280;3145;42.726;23.342;2023-07-29T06:39:50;70559.03;;;-142.70;35.32
6224;BME280;3145;42.726;23.342;2023-07-29T06:42:17;70526.84;;;-142.70;34.49
6224;BME280;3145;42.726;23.342;2023-07-29T06:44:44;70569.13;;;-142.70;35.03
6224;BME280;3145;42.726;23.342;2023-07-29T06:47:11;70571.13;;;-142.70;34.92
6224;BME280;3145;42.726;23.342;2023-07-29T06:49:39;70532.88;;;-142.70;34.89
6224;BME280;3145;42.726;23.342;2023-07-29T06:52:06;70478.50;;;-142.70;34.71
6224;BME280;3145;42.726;23.342;2023-07-29T06:54:33;70474.50;;;-142.70;34.22
6224;BME280;3145;42.726;23.342;2023-07-29T06:57:00;70488.59;;;-142.70;34.79
6224;BME280;3145;42.726;23.342;2023-07-29T06:59:26;70534.88;;;-142.70;35.31
6224;BME280;3145;42.726;23.342;2023-07-29T07:01:53;70506.69;;;-142.70;35.85
6224;BME280;3145;42.726;23.342;2023-07-29T07:04:20;70456.38;;;-142.70;35.45
6224;BME280;3145;42.726;23.342;2023-07-29T07:06:48;70438.25;;;-142.70;33.82
6224;BME280;3145;42.726;23.342;2023-07-29T07:09:14;70526.84;;;-142.70;34.40
6224;BME280;3145;42.726;23.342;2023-07-29T07:11:41;70532.88;;;-142.70;35.19
6224;BME280;3145;42.726;23.342;2023-07-29T07:14:08;70514.75;;;-142.70;34.39
6224;BME280;3145;42.726;23.342;2023-07-29T07:16:34;70528.84;;;-142.70;34.83
6224;BME280;3145;42.726;23.342;2023-07-29T07:19:02;70462.41;;;-142.70;33.80
6224;BME280;3145;42.726;23.342;2023-07-29T07:21:29;70414.09;;;-142.70;34.12
6224;BME280;3145;42.726;23.342;2023-07-29T07:23:57;70363.75;;;-142.70;33.93
6224;BME280;3145;42.726;23.342;2023-07-29T07:26:23;70301.34;;;-142.70;33.26
6224;BME280;3145;42.726;23.342;2023-07-29T07:28:50;70253.03;;;-142.70;32.37
6224;BME280;3145;42.726;23.342;2023-07-29T07:31:17;70269.13;;;-142.70;31.92
6224;BME280;3145;42.726;23.342;2023-07-29T07:33:44;70325.50;;;-142.70;32.29
6224;BME280;3145;42.726;23.342;2023-07-29T07:36:11;70279.19;;;-142.70;32.76
6224;BME280;3145;42.726;23.342;2023-07-29T07:38:38;70259.06;;;-142.70;32.19
6224;BME280;3145;42.726;23.342;2023-07-29T07:41:06;70238.94;;;-142.70;31.73
6224;BME280;3145;42.726;23.342;2023-07-29T07:43:32;70200.69;;;-142.70;31.94
6224;BME280;3145;42.726;23.342;2023-07-29T07:46:00;70200.69;;;-142.70;31.09
6224;BME280;3145;42.726;23.342;2023-07-29T07:48:28;70204.72;;;-142.70;31.53
6224;BME280;3145;42.726;23.342;2023-07-29T07:50:55;70259.06;;;-142.70;31.73
6224;BME280;3145;42.726;23.342;2023-07-29T07:53:21;70325.50;;;-142.70;32.49
6224;BME280;3145;42.726;23.342;2023-07-29T07:55:48;70369.81;;;-142.70;32.48
6224;BME280;3145;42.726;23.342;2023-07-29T07:58:16;70395.97;;;-142.70;33.47
6224;BME280;3145;42.726;23.342;2023-07-29T08:00:43;70365.78;;;-142.70;32.54
6224;BME280;3145;42.726;23.342;2023-07-29T08:03:10;70387.91;;;-142.70;32.56
6224;BME280;3145;42.726;23.342;2023-07-29T08:05:36;70397.97;;;-142.70;32.69
6224;BME280;3145;42.726;23.342;2023-07-29T08:08:03;70357.72;;;-142.70;33.05
6224;BME280;3145;42.726;23.342;2023-07-29T08:10:30;70277.19;;;-142.70;32.66
6224;BME280;3145;42.726;23.342;2023-07-29T08:12:56;70257.06;;;-142.70;31.72
6224;BME280;3145;42.726;23.342;2023-07-29T08:15:24;70261.09;;;-142.70;31.36
6224;BME280;3145;42.726;23.342;2023-07-29T08:17:51;70265.13;;;-142.70;32.09
6224;BME280;3145;42.726;23.342;2023-07-29T08:20:18;70273.16;;;-142.70;31.44
6224;BME280;3145;42.726;23.342;2023-07-29T08:22:45;70283.22;;;-142.70;31.61
6224;BME280;3145;42.726;23.342;2023-07-29T08:25:11;70273.16;;;-142.70;32.16
6224;BME280;3145;42.726;23.342;2023-07-29T08:27:38;70236.94;;;-142.70;30.97
6224;BME280;3145;42.726;23.342;2023-07-29T08:30:06;70192.63;;;-142.70;30.50
6224;BME280;3145;42.726;23.342;2023-07-29T08:32:34;70136.28;;;-142.70;30.94
6224;BME280;3145;42.726;23.342;2023-07-29T08:35:01;70091.97;;;-142.70;30.34
6224;BME280;3145;42.726;23.342;2023-07-29T08:37:28;70041.66;;;-142.70;30.74
6224;BME280;3145;42.726;23.342;2023-07-29T08:39:55;70001.41;;;-142.70;28.62
6224;BME280;3145;42.726;23.342;2023-07-29T08:42:23;69951.06;;;-142.70;28.27
6224;BME280;3145;42.726;23.342;2023-07-29T08:44:50;69904.78;;;-142.70;28.91
6224;BME280;3145;42.726;23.342;2023-07-29T08:47:18;69894.72;;;-142.70;28.52
6224;BME280;3145;42.726;23.342;2023-07-29T08:49:47;69858.47;;;-142.70;28.11
6224;BME280;3145;42.726;23.342;2023-07-29T08:52:18;69874.56;;;-142.70;28.02
6224;BME280;3145;42.726;23.342;2023-07-29T08:54:45;69868.53;;;-142.70;28.67
6224;BME280;3145;42.726;23.342;2023-07-29T08:57:13;69830.28;;;-142.70;28.44
6224;BME280;3145;42.726;23.342;2023-07-29T08:59:40;69812.19;;;-142.70;27.82
6224;BME280;3145;42.726;23.342;2023-07-29T09:02:08;69822.25;;;-142.70;27.63
6224;BME280;3145;42.726;23.342;2023-07-29T09:04:34;69860.50;;;-142.70;27.48
6224;BME280;3145;42.726;23.342;2023-07-29T09:07:05;69916.84;;;-142.70;26.88
6224;BME280;3145;42.726;23.342;2023-07-29T09:09:32;69967.19;;;-142.70;27.47
6224;BME280;3145;42.726;23.342;2023-07-29T09:11:58;69965.16;;;-142.70;26.94
6224;BME280;3145;42.726;23.342;2023-07-29T09:14:26;69926.91;;;-142.70;26.60
6224;BME280;3145;42.726;23.342;2023-07-29T09:16:53;69939.00;;;-142.70;26.19
6224;BME280;3145;42.726;23.342;2023-07-29T09:19:20;69983.28;;;-142.70;27.04
6224;BME280;3145;42.726;23.342;2023-07-29T09:21:47;69971.19;;;-142.70;26.54
6224;BME280;3145;42.726;23.342;2023-07-29T09:24:17;69902.75;;;-142.70;27.31
6224;BME280;3145;42.726;23.342;2023-07-29T09:26:49;69858.47;;;-142.70;26.47
6224;BME280;3145;42.726;23.342;2023-07-29T09:29:15;69818.22;;;-142.70;27.00
6224;BME280;3145;42.726;23.342;2023-07-29T09:31:48;69771.91;;;-142.70;26.28
6224;BME280;3145;42.726;23.342;2023-07-29T09:34:15;69777.97;;;-142.70;25.51
6224;BME280;3145;42.726;23.342;2023-07-29T09:36:42;69858.47;;;-142.70;26.32
6224;BME280;3145;42.726;23.342;2023-07-29T09:39:11;69939.00;;;-142.70;27.18
6224;BME280;3145;42.726;23.342;2023-07-29T09:41:39;70045.69;;;-142.70;27.61
6224;BME280;3145;42.726;23.342;2023-07-29T09:44:07;70049.72;;;-142.70;27.10
6224;BME280;3145;42.726;23.342;2023-07-29T09:46:35;69999.38;;;-142.70;27.59
6224;BME280;3145;42.726;23.342;2023-07-29T09:49:03;69939.00;;;-142.70;28.06
6224;BME280;3145;42.726;23.342;2023-07-29T09:51:30;69902.75;;;-142.70;27.16
6224;BME280;3145;42.726;23.342;2023-07-29T09:53:56;69898.72;;;-142.70;25.99
6224;BME280;3145;42.726;23.342;2023-07-29T09:56:25;69916.84;;;-142.70;26.60
6224;BME280;3145;42.726;23.342;2023-07-29T09:58:55;69918.88;;;-142.70;25.76
6224;BME280;3145;42.726;23.342;2023-07-29T10:01:23;69878.59;;;-142.70;26.56
6224;BME280;3145;42.726;23.342;2023-07-29T10:03:50;69846.41;;;-142.70;26.19
6224;BME280;3145;42.726;23.342;2023-07-29T10:06:17;69810.16;;;-142.70;25.94
6224;BME280;3145;42.726;23.342;2023-07-29T10:08:45;69761.84;;;-142.70;25.71
6224;BME280;3145;42.726;23.342;2023-07-29T10:11:12;69747.75;;;-142.70;25.16
6224;BME280;3145;42.726;23.342;2023-07-29T10:13:39;69725.63;;;-142.70;25.47
6224;BME280;3145;42.726;23.342;2023-07-29T10:16:07;69796.06;;;-142.70;25.49
6224;BME280;3145;42.726;23.342;2023-07-29T10:18:34;69818.22;;;-142.70;26.24
6224;BME280;3145;42.726;23.342;2023-07-29T10:21:01;69796.06;;;-142.70;26.29
6224;BME280;3145;42.726;23.342;2023-07-29T10:23:32;69784.00;;;-142.70;26.18
6224;BME280;3145;42.726;23.342;2023-07-29T10:26:03;69749.78;;;-142.70;26.39
6224;BME280;3145;42.726;23.342;2023-07-29T10:28:31;69715.56;;;-142.70;26.18
6224;BME280;3145;42.726;23.342;2023-07-29T10:30:59;69673.28;;;-142.70;25.32
6224;BME280;3145;42.726;23.342;2023-07-29T10:33:28;69739.72;;;-142.70;25.38
6224;BME280;3145;42.726;23.342;2023-07-29T10:35:55;69846.41;;;-142.70;26.54
6224;BME280;3145;42.726;23.342;2023-07-29T10:38:22;69830.28;;;-142.70;26.19
6224;BME280;3145;42.726;23.342;2023-07-29T10:40:52;69832.31;;;-142.70;26.29
6224;BME280;3145;42.726;23.342;2023-07-29T10:43:25;69777.97;;;-142.70;25.92
6224;BME280;3145;42.726;23.342;2023-07-29T10:45:53;69947.03;;;-142.70;26.14
6224;BME280;3145;42.726;23.342;2023-07-29T10:48:40;69934.97;;;-142.70;26.17
6224;BME280;3145;42.726;23.342;2023-07-29T10:51:28;69985.28;;;-142.70;27.18
6224;BME280;3145;42.726;23.342;2023-07-29T10:53:59;69916.84;;;-142.70;25.82
6224;BME280;3145;42.726;23.342;2023-07-29T10:56:28;69882.63;;;-142.70;25.32
6224;BME280;3145;42.726;23.342;2023-07-29T10:58:56;69979.25;;;-142.70;25.49
6224;BME280;3145;42.726;23.342;2023-07-29T11:01:27;69943.03;;;-142.70;25.24
6224;BME280;3145;42.726;23.342;2023-07-29T11:04:25;69914.84;;;-142.70;25.78
6224;BME280;3145;42.726;23.342;2023-07-29T11:09:53;69810.16;;;-142.70;24.98
6224;BME280;3145;42.726;23.342;2023-07-29T11:12:41;69902.75;;;-142.70;26.08
6224;BME280;3145;42.726;23.342;2023-07-29T11:15:14;69866.53;;;-142.70;25.67
6224;BME280;3145;42.726;23.342;2023-07-29T11:17:42;69826.28;;;-142.70;26.65
6224;BME280;3145;42.726;23.342;2023-07-29T11:20:11;69802.13;;;-142.70;25.41
6224;BME280;3145;42.726;23.342;2023-07-29T11:22:39;69765.88;;;-142.70;25.16
6224;BME280;3145;42.726;23.342;2023-07-29T11:25:07;69759.84;;;-142.70;25.60
6224;BME280;3145;42.726;23.342;2023-07-29T11:27:34;69719.59;;;-142.70;25.71
6224;BME280;3145;42.726;23.342;2023-07-29T11:30:03;69747.75;;;-142.70;25.66
6224;BME280;3145;42.726;23.342;2023-07-29T11:32:32;69677.31;;;-142.70;25.57
6224;BME280;3145;42.726;23.342;2023-07-29T11:35:02;69655.19;;;-142.70;24.57
6224;BME280;3145;42.726;23.342;2023-07-29T11:37:30;69725.63;;;-142.70;24.46
6224;BME280;3145;42.726;23.342;2023-07-29T11:39:57;69775.94;;;-142.70;25.11
6224;BME280;3145;42.726;23.342;2023-07-29T11:42:24;69733.69;;;-142.70;24.74
6224;BME280;3145;42.726;23.342;2023-07-29T11:44:52;69695.44;;;-142.70;24.20
6224;BME280;3145;42.726;23.342;2023-07-29T11:47:19;69669.25;;;-142.70;24.06
6224;BME280;3145;42.726;23.342;2023-07-29T11:49:45;69681.34;;;-142.70;24.68
6224;BME280;3145;42.726;23.342;2023-07-29T11:52:12;69695.44;;;-142.70;24.29
6224;BME280;3145;42.726;23.342;2023-07-29T11:54:40;69681.34;;;-142.70;24.91
6224;BME280;3145;42.726;23.342;2023-07-29T11:57:07;69629.00;;;-142.70;24.96
6224;BME280;3145;42.726;23.342;2023-07-29T11:59:36;69584.72;;;-142.70;24.00
6224;BME280;3145;42.726;23.342;2023-07-29T12:02:07;69568.63;;;-142.70;24.12
6224;BME280;3145;42.726;23.342;2023-07-29T12:04:35;69592.78;;;-142.70;24.46
6224;BME280;3145;42.726;23.342;2023-07-29T12:07:03;69681.34;;;-142.70;24.17
6224;BME280;3145;42.726;23.342;2023-07-29T12:09:29;69705.50;;;-142.70;24.12
6224;BME280;3145;42.726;23.342;2023-07-29T12:11:58;69751.78;;;-142.70;24.21
6224;BME280;3145;42.726;23.342;2023-07-29T12:14:26;69737.69;;;-142.70;24.71
6224;BME280;3145;42.726;23.342;2023-07-29T12:16:53;69741.72;;;-142.70;24.53
6224;BME280;3145;42.726;23.342;2023-07-29T12:19:20;69745.75;;;-142.70;24.53
6224;BME280;3145;42.726;23.342;2023-07-29T12:21:48;69761.84;;;-142.70;24.29
6224;BME280;3145;42.726;23.342;2023-07-29T12:24:14;69739.72;;;-142.70;23.75
6224;BME280;3145;42.726;23.342;2023-07-29T12:26:41;69804.13;;;-142.70;23.65
6224;BME280;3145;42.726;23.342;2023-07-29T12:29:13;69775.94;;;-142.70;24.35
6224;BME280;3145;42.726;23.342;2023-07-29T12:31:40;69761.84;;;-142.70;23.61
6224;BME280;3145;42.726;23.342;2023-07-29T12:34:08;69798.09;;;-142.70;23.83
6224;BME280;3145;42.726;23.342;2023-07-29T12:36:42;69737.69;;;-142.70;23.81
6224;BME280;3145;42.726;23.342;2023-07-29T12:39:21;69677.31;;;-142.70;24.46
6224;BME280;3145;42.726;23.342;2023-07-29T12:41:50;69653.16;;;-142.70;23.70
6224;BME280;3145;42.726;23.342;2023-07-29T12:44:18;69600.84;;;-142.70;23.58
6224;BME280;3145;42.726;23.342;2023-07-29T12:46:45;69564.59;;;-142.70;23.73
6224;BME280;3145;42.726;23.342;2023-07-29T12:49:12;69558.56;;;-142.70;23.02
6224;BME280;3145;42.726;23.342;2023-07-29T12:51:39;69564.59;;;-142.70;23.32
6224;BME280;3145;42.726;23.342;2023-07-29T12:54:05;69552.53;;;-142.70;23.48
6224;BME280;3145;42.726;23.342;2023-07-29T12:56:33;69504.22;;;-142.70;23.10